| time (UTC) | temp F | wind direction | speed MPH | gust MPH | rain 1hr in | rain 24hr in | rain mn in | humidity % | barometer mb |
| 20260906230116 | 76 | 136 | 3.0 | 8.0 | 0.00 | 0.01 | 0.00 | 28 | 1016.5 |
| 20260906224612 | 76 | 136 | 2.0 | 7.0 | 0.00 | 0.01 | 0.00 | 28 | 1016.6 |
| 20260906223100 | 76 | 136 | 5.0 | 9.0 | 0.00 | 0.01 | 0.00 | 26 | 1016.5 |
| 20260906221604 | 76 | 136 | 2.0 | 6.0 | 0.00 | 0.01 | 0.00 | 26 | 1016.7 |
| 20260906220054 | 76 | 136 | 2.0 | 8.0 | 0.00 | 0.01 | 0.00 | 26 | 1016.7 |
| 20260906214602 | 76 | 136 | 4.0 | 9.0 | 0.00 | 0.01 | 0.00 | 26 | 1016.7 |
| 20260906213111 | 77 | 136 | 2.0 | 7.0 | 0.00 | 0.01 | 0.00 | 25 | 1016.7 |
| 20260906211607 | 77 | 136 | 2.0 | 9.0 | 0.00 | 0.01 | 0.00 | 24 | 1016.8 |
| 20260906210052 | 77 | 136 | 3.0 | 7.0 | 0.00 | 0.01 | 0.00 | 23 | 1016.9 |
| 20260906204603 | 77 | 136 | 2.0 | 10.0 | 0.00 | 0.01 | 0.00 | 22 | 1017.3 |
| 20260906203056 | 77 | 136 | 6.0 | 11.0 | 0.00 | 0.01 | 0.00 | 22 | 1017.3 |
| 20260906201616 | 77 | 136 | 2.0 | 9.0 | 0.00 | 0.01 | 0.00 | 22 | 1017.4 |
| 20260906200057 | 76 | 136 | 4.0 | 10.0 | 0.00 | 0.01 | 0.00 | 23 | 1017.7 |
| 20260906194554 | 76 | 136 | 1.0 | 4.0 | 0.00 | 0.01 | 0.00 | 26 | 1017.7 |
| 20260906193102 | 77 | 136 | 1.0 | 7.0 | 0.00 | 0.01 | 0.00 | 28 | 1017.9 |
| 20260906191605 | 75 | 136 | 2.0 | 6.0 | 0.00 | 0.01 | 0.00 | 30 | 1018.0 |
| 20260906190056 | 75 | 136 | 2.0 | 6.0 | 0.00 | 0.01 | 0.00 | 35 | 1018.3 |
| 20260906184554 | 74 | 136 | 2.0 | 7.0 | 0.00 | 0.02 | 0.00 | 36 | 1018.5 |
| 20260906183121 | 74 | 136 | 2.0 | 4.0 | 0.00 | 0.02 | 0.00 | 36 | 1018.8 |
| 20260906181619 | 75 | 136 | 1.0 | 6.0 | 0.00 | 0.02 | 0.00 | 32 | 1019.1 |
| 20260906180115 | 73 | 136 | 2.0 | 4.0 | 0.00 | 0.02 | 0.00 | 36 | 1019.4 |
| 20260906174602 | 71 | 136 | 2.0 | 4.0 | 0.00 | 0.03 | 0.00 | 41 | 1019.7 |
| 20260906173059 | 70 | 136 | 1.0 | 4.0 | 0.00 | 0.03 | 0.00 | 43 | 1019.8 |
| 20260906171558 | 71 | 136 | 1.0 | 2.0 | 0.00 | 0.03 | 0.00 | 40 | 1019.9 |
| 20260906170055 | 71 | 136 | 0.0 | 3.0 | 0.00 | 0.03 | 0.00 | 35 | 1020.2 |
| 20260906164604 | 70 | 136 | 0.0 | 3.0 | 0.00 | 0.03 | 0.00 | 36 | 1020.3 |
| 20260906163107 | 69 | 136 | 1.0 | 2.0 | 0.00 | 0.03 | 0.00 | 41 | 1020.4 |
| 20260906161602 | 68 | 136 | 0.0 | 2.0 | 0.00 | 0.03 | 0.00 | 40 | 1020.4 |
| 20260906160055 | 66 | 136 | 0.0 | 2.0 | 0.00 | 0.03 | 0.00 | 46 | 1020.4 |
| 20260906154602 | 66 | 136 | 0.0 | 1.0 | 0.00 | 0.03 | 0.00 | 45 | 1020.4 |
| 20260906153100 | 64 | 0 | 0.0 | 0.0 | 0.00 | 0.03 | 0.00 | 46 | 1020.5 |
| 20260906151556 | 62 | 0 | 0.0 | 1.0 | 0.00 | 0.03 | 0.00 | 46 | 1020.5 |
| 20260906150106 | 59 | 0 | 0.0 | 1.0 | 0.00 | 0.03 | 0.00 | 48 | 1020.4 |
| 20260906144607 | 57 | 136 | 0.0 | 2.0 | 0.00 | 0.03 | 0.00 | 48 | 1020.4 |
| 20260906143058 | 56 | 0 | 0.0 | 1.0 | 0.00 | 0.03 | 0.00 | 51 | 1020.4 |
| 20260906141556 | 53 | 136 | 0.0 | 1.0 | 0.00 | 0.03 | 0.00 | 57 | 1020.5 |
| 20260906140052 | 52 | 0 | 0.0 | 1.0 | 0.00 | 0.03 | 0.00 | 56 | 1020.4 |
| 20260906134604 | 50 | 136 | 0.0 | 1.0 | 0.00 | 0.03 | 0.00 | 55 | 1020.2 |
| 20260906133056 | 48 | 136 | 0.0 | 1.0 | 0.00 | 0.03 | 0.00 | 58 | 1020.0 |
| 20260906131605 | 50 | 0 | 0.0 | 1.0 | 0.00 | 0.03 | 0.00 | 53 | 1019.9 |
| 20260906130110 | 51 | 136 | 0.0 | 1.0 | 0.00 | 0.03 | 0.00 | 51 | 1019.9 |
| 20260906124555 | 54 | 136 | 2.0 | 3.0 | 0.00 | 0.03 | 0.00 | 43 | 1019.8 |
| 20260906123103 | 54 | 136 | 1.0 | 3.0 | 0.00 | 0.03 | 0.00 | 44 | 1019.7 |
| 20260906121609 | 54 | 136 | 2.0 | 6.0 | 0.00 | 0.03 | 0.00 | 44 | 1019.7 |
| 20260906120101 | 54 | 136 | 2.0 | 3.0 | 0.00 | 0.03 | 0.00 | 41 | 1019.8 |
| 20260906114610 | 53 | 136 | 1.0 | 3.0 | 0.00 | 0.03 | 0.00 | 42 | 1019.7 |
| 20260906113057 | 53 | 136 | 1.0 | 3.0 | 0.00 | 0.03 | 0.00 | 46 | 1019.7 |
| 20260906111604 | 53 | 136 | 2.0 | 3.0 | 0.00 | 0.03 | 0.00 | 45 | 1019.7 |
| 20260906110059 | 52 | 0 | 0.0 | 1.0 | 0.00 | 0.03 | 0.00 | 48 | 1020.0 |
| 20260906104556 | 51 | 0 | 0.0 | 2.0 | 0.00 | 0.03 | 0.00 | 52 | 1019.9 |
| 20260906103105 | 51 | 0 | 0.0 | 0.0 | 0.00 | 0.03 | 0.00 | 53 | 1019.8 |
| 20260906101559 | 52 | 0 | 0.0 | 1.0 | 0.00 | 0.03 | 0.00 | 51 | 1019.6 |
| 20260906100059 | 54 | 0 | 0.0 | 3.0 | 0.00 | 0.03 | 0.00 | 47 | 1019.6 |
| 20260906094557 | 55 | 136 | 1.0 | 2.0 | 0.00 | 0.03 | 0.00 | 45 | 1019.5 |
| 20260906093102 | 54 | 136 | 0.0 | 2.0 | 0.00 | 0.03 | 0.00 | 51 | 1019.4 |
| 20260906091559 | 53 | 136 | 0.0 | 2.0 | 0.00 | 0.03 | 0.00 | 45 | 1019.4 |
| 20260906090106 | 56 | 136 | 1.0 | 2.0 | 0.00 | 0.03 | 0.00 | 41 | 1019.2 |
| 20260906084600 | 57 | 136 | 0.0 | 3.0 | 0.00 | 0.03 | 0.00 | 39 | 1019.4 |
| 20260906083052 | 57 | 136 | 0.0 | 2.0 | 0.00 | 0.03 | 0.00 | 39 | 1019.5 |
| 20260906081614 | 58 | 136 | 1.0 | 3.0 | 0.00 | 0.03 | 0.00 | 37 | 1019.5 |
| 20260906080059 | 58 | 136 | 1.0 | 3.0 | 0.00 | 0.03 | 0.00 | 37 | 1019.5 |
| 20260906074609 | 58 | 136 | 1.0 | 3.0 | 0.00 | 0.03 | 0.00 | 36 | 1019.6 |
| 20260906073102 | 58 | 136 | 1.0 | 2.0 | 0.00 | 0.03 | 0.00 | 39 | 1019.5 |
| 20260906071603 | 58 | 136 | 2.0 | 3.0 | 0.00 | 0.03 | 0.00 | 37 | 1019.4 |
| 20260906070100 | 59 | 136 | 1.0 | 3.0 | 0.00 | 0.03 | 0.00 | 38 | 1019.4 |
| 20260906064553 | 59 | 136 | 2.0 | 3.0 | 0.00 | 0.03 | 0.00 | 37 | 1019.4 |
| 20260906063101 | 60 | 136 | 1.0 | 3.0 | 0.00 | 0.03 | 0.00 | 37 | 1019.4 |
| 20260906061610 | 61 | 136 | 1.0 | 2.0 | 0.00 | 0.03 | 0.00 | 36 | 1019.4 |
| 20260906060058 | 61 | 136 | 1.0 | 3.0 | 0.00 | 0.03 | 0.00 | 34 | 1019.4 |
| 20260906054555 | 61 | 136 | 1.0 | 3.0 | 0.00 | 0.03 | 0.03 | 33 | 1019.3 |
| 20260906053101 | 61 | 136 | 2.0 | 3.0 | 0.00 | 0.03 | 0.03 | 33 | 1019.3 |
| 20260906051605 | 62 | 136 | 2.0 | 4.0 | 0.00 | 0.03 | 0.03 | 32 | 1019.3 |
| 20260906050058 | 62 | 136 | 2.0 | 3.0 | 0.00 | 0.03 | 0.03 | 31 | 1019.3 |
| 20260906044601 | 62 | 136 | 2.0 | 4.0 | 0.00 | 0.03 | 0.03 | 32 | 1019.5 |
| 20260906043101 | 64 | 136 | 1.0 | 3.0 | 0.00 | 0.03 | 0.03 | 29 | 1019.4 |
| 20260906041559 | 61 | 136 | 1.0 | 2.0 | 0.00 | 0.03 | 0.03 | 31 | 1019.4 |
| 20260906040056 | 61 | 136 | 1.0 | 3.0 | 0.00 | 0.03 | 0.03 | 33 | 1019.4 |
| 20260906034601 | 63 | 136 | 0.0 | 2.0 | 0.00 | 0.03 | 0.03 | 33 | 1019.3 |
| 20260906033059 | 65 | 0 | 1.0 | 4.0 | 0.00 | 0.03 | 0.03 | 30 | 1019.2 |
| 20260906031603 | 65 | 136 | 0.0 | 2.0 | 0.00 | 0.03 | 0.03 | 30 | 1019.1 |
| 20260906030054 | 67 | 136 | 2.0 | 4.0 | 0.00 | 0.03 | 0.03 | 25 | 1018.7 |
| 20260906024603 | 68 | 136 | 1.0 | 3.0 | 0.00 | 0.04 | 0.03 | 25 | 1018.5 |
| 20260906023100 | 69 | 136 | 1.0 | 3.0 | 0.00 | 0.04 | 0.03 | 24 | 1018.2 |
| 20260906021557 | 68 | 136 | 1.0 | 2.0 | 0.00 | 0.04 | 0.03 | 24 | 1018.2 |
| 20260906014601 | 72 | 136 | 1.0 | 2.0 | 0.00 | 0.04 | 0.03 | 21 | 1018.5 |
| 20260906013103 | 72 | 136 | 1.0 | 2.0 | 0.00 | 0.04 | 0.03 | 21 | 1018.6 |
| 20260906011600 | 74 | 136 | 1.0 | 4.0 | 0.00 | 0.04 | 0.03 | 20 | 1018.5 |
| 20260906010103 | 76 | 136 | 1.0 | 4.0 | 0.00 | 0.04 | 0.03 | 19 | 1018.6 |
| 20260906004558 | 77 | 136 | 1.0 | 6.0 | 0.00 | 0.04 | 0.03 | 18 | 1018.5 |
| 20260906003102 | 77 | 136 | 2.0 | 8.0 | 0.00 | 0.04 | 0.03 | 17 | 1018.3 |
| 20260906001600 | 78 | 136 | 2.0 | 4.0 | 0.00 | 0.04 | 0.03 | 18 | 1018.2 |
| 20260906000059 | 78 | 136 | 3.0 | 10.0 | 0.01 | 0.04 | 0.03 | 17 | 1018.3 |
| 20260905234601 | 78 | 136 | 4.0 | 9.0 | 0.01 | 0.04 | 0.03 | 16 | 1018.2 |
| 20260905233100 | 78 | 136 | 3.0 | 12.0 | 0.01 | 0.04 | 0.03 | 20 | 1018.1 |
| 20260905231603 | 78 | 136 | 3.0 | 8.0 | 0.01 | 0.04 | 0.03 | 22 | 1018.1 |